CTV175 WARR-WIII
Flight info
| Callsign | CTV175 |
|---|---|
| Flight time | N/A |
| Altitude | 32000 |
| Route | LASEM T2 KALUT T6 KURUS |
| Aircraft | A320/M-SDE3FGHIRWY/LB1 |
Departure
| Time | 2026-05-06 01:34 |
|---|---|
| Airport | Juanda International Airport (WARR) |
Arrival
| Time | N/A |
|---|---|
| Airport | Soekarno-Hatta International Airport (WIII) |
| Time | Latitude | Longitude | Altitude | Speed | Heading |
|---|---|---|---|---|---|
| 2026-05-06 01:03 | -7.37626 | 112.79709 | 9 ft | 0 kts | 9° |
| 2026-05-06 01:22 | -7.37640 | 112.79707 | 9 ft | 3 kts | 9° |
| 2026-05-06 01:23 | -7.37661 | 112.79703 | 9 ft | 4 kts | 9° |
| 2026-05-06 01:23 | -7.37686 | 112.79701 | 9 ft | 4 kts | 352° |
| 2026-05-06 01:23 | -7.37710 | 112.79710 | 9 ft | 4 kts | 312° |
| 2026-05-06 01:23 | -7.37723 | 112.79733 | 9 ft | 4 kts | 285° |
| 2026-05-06 01:24 | -7.37728 | 112.79759 | 9 ft | 3 kts | 279° |
| 2026-05-06 01:24 | -7.37728 | 112.79762 | 9 ft | 1 kts | 279° |
| 2026-05-06 01:26 | -7.37727 | 112.79756 | 9 ft | 2 kts | 279° |
| 2026-05-06 01:26 | -7.37722 | 112.79727 | 9 ft | 6 kts | 280° |
| 2026-05-06 01:27 | -7.37712 | 112.79665 | 9 ft | 11 kts | 279° |
| 2026-05-06 01:27 | -7.37696 | 112.79570 | 9 ft | 16 kts | 279° |
| 2026-05-06 01:27 | -7.37683 | 112.79482 | 9 ft | 11 kts | 273° |
| 2026-05-06 01:27 | -7.37746 | 112.79442 | 9 ft | 14 kts | 187° |
| 2026-05-06 01:28 | -7.37844 | 112.79426 | 9 ft | 14 kts | 188° |
| 2026-05-06 01:28 | -7.37926 | 112.79448 | 9 ft | 11 kts | 125° |
| 2026-05-06 01:28 | -7.37942 | 112.79518 | 9 ft | 9 kts | 99° |
| 2026-05-06 01:28 | -7.37952 | 112.79581 | 9 ft | 9 kts | 99° |
| 2026-05-06 01:29 | -7.37964 | 112.79653 | 9 ft | 13 kts | 99° |
| 2026-05-06 01:29 | -7.37979 | 112.79753 | 10 ft | 16 kts | 99° |
| 2026-05-06 01:29 | -7.37998 | 112.79869 | 9 ft | 15 kts | 99° |
| 2026-05-06 01:29 | -7.38015 | 112.79977 | 9 ft | 14 kts | 98° |
| 2026-05-06 01:30 | -7.38065 | 112.80040 | 9 ft | 13 kts | 164° |
| 2026-05-06 01:30 | -7.38158 | 112.80029 | 7 ft | 12 kts | 189° |
| 2026-05-06 01:30 | -7.38192 | 112.79979 | 7 ft | 9 kts | 279° |
| 2026-05-06 01:30 | -7.38190 | 112.79963 | 7 ft | 0 kts | 279° |
| 2026-05-06 01:33 | -7.38164 | 112.79793 | 7 ft | 64 kts | 280° |
| 2026-05-06 01:33 | -7.38045 | 112.79074 | 11 ft | 141 kts | 279° |
| 2026-05-06 01:33 | -7.37856 | 112.77934 | 193 ft | 184 kts | 279° |
| 2026-05-06 01:33 | -7.37625 | 112.76549 | 587 ft | 217 kts | 279° |
| 2026-05-06 01:34 | -7.37366 | 112.74966 | 1134 ft | 236 kts | 279° |
| 2026-05-06 01:34 | -7.37096 | 112.73290 | 1723 ft | 248 kts | 279° |
| 2026-05-06 01:34 | -7.36814 | 112.71534 | 2306 ft | 260 kts | 279° |
| 2026-05-06 01:34 | -7.36518 | 112.69703 | 2887 ft | 269 kts | 280° |
| 2026-05-06 01:35 | -7.36213 | 112.67825 | 3467 ft | 273 kts | 279° |
| 2026-05-06 01:35 | -7.35906 | 112.65925 | 4045 ft | 277 kts | 279° |
| 2026-05-06 01:35 | -7.35595 | 112.64001 | 4623 ft | 280 kts | 279° |
| 2026-05-06 01:35 | -7.35282 | 112.62057 | 5204 ft | 282 kts | 279° |
| 2026-05-06 01:36 | -7.34964 | 112.60102 | 5781 ft | 285 kts | 279° |
| 2026-05-06 01:36 | -7.34642 | 112.58116 | 6361 ft | 288 kts | 279° |
| 2026-05-06 01:36 | -7.34317 | 112.56123 | 6935 ft | 291 kts | 279° |
| 2026-05-06 01:36 | -7.33850 | 112.54129 | 7505 ft | 294 kts | 291° |
| 2026-05-06 01:37 | -7.32913 | 112.52297 | 8088 ft | 296 kts | 305° |
| 2026-05-06 01:37 | -7.31722 | 112.50586 | 8671 ft | 299 kts | 305° |
| 2026-05-06 01:37 | -7.30522 | 112.48859 | 9249 ft | 302 kts | 305° |
| 2026-05-06 01:37 | -7.29313 | 112.47113 | 9827 ft | 305 kts | 305° |
| 2026-05-06 01:38 | -7.28095 | 112.45348 | 10406 ft | 310 kts | 305° |
| 2026-05-06 01:38 | -7.26853 | 112.43545 | 10940 ft | 318 kts | 305° |
| 2026-05-06 01:38 | -7.25564 | 112.41668 | 11221 ft | 334 kts | 305° |
| 2026-05-06 01:38 | -7.24209 | 112.39699 | 11473 ft | 350 kts | 305° |
| 2026-05-06 01:39 | -7.22794 | 112.37645 | 11798 ft | 362 kts | 305° |
| 2026-05-06 01:39 | -7.21350 | 112.35552 | 12347 ft | 366 kts | 306° |
| 2026-05-06 01:39 | -7.19683 | 112.33609 | 12931 ft | 368 kts | 317° |
| 2026-05-06 01:39 | -7.17726 | 112.31932 | 13512 ft | 371 kts | 321° |
| 2026-05-06 01:40 | -7.15729 | 112.30272 | 14065 ft | 374 kts | 321° |
| 2026-05-06 01:40 | -7.13719 | 112.28595 | 14628 ft | 376 kts | 320° |
| 2026-05-06 01:40 | -7.11698 | 112.26907 | 15173 ft | 379 kts | 320° |
| 2026-05-06 01:40 | -7.09663 | 112.25206 | 15697 ft | 382 kts | 320° |
| 2026-05-06 01:41 | -7.07611 | 112.23493 | 16214 ft | 384 kts | 320° |
| 2026-05-06 01:41 | -7.05550 | 112.21772 | 16714 ft | 387 kts | 320° |
| 2026-05-06 01:41 | -7.03473 | 112.20039 | 17202 ft | 389 kts | 320° |
| 2026-05-06 01:41 | -7.01387 | 112.18294 | 17681 ft | 392 kts | 320° |
| 2026-05-06 01:42 | -6.99284 | 112.16532 | 18162 ft | 394 kts | 320° |
| 2026-05-06 01:42 | -6.97163 | 112.14713 | 18634 ft | 397 kts | 316° |
| 2026-05-06 01:42 | -6.95333 | 112.12629 | 19091 ft | 400 kts | 306° |
| 2026-05-06 01:42 | -6.93789 | 112.10289 | 19530 ft | 403 kts | 303° |
| 2026-05-06 01:43 | -6.92251 | 112.07922 | 19955 ft | 405 kts | 303° |
| 2026-05-06 01:43 | -6.90701 | 112.05550 | 20409 ft | 407 kts | 304° |
| 2026-05-06 01:43 | -6.89133 | 112.03158 | 20784 ft | 411 kts | 304° |
| 2026-05-06 01:43 | -6.87551 | 112.00750 | 21173 ft | 414 kts | 304° |
| 2026-05-06 01:44 | -6.85959 | 111.98326 | 21565 ft | 416 kts | 304° |
| 2026-05-06 01:44 | -6.84359 | 111.95888 | 21942 ft | 419 kts | 304° |
| 2026-05-06 01:44 | -6.82751 | 111.93432 | 22272 ft | 422 kts | 304° |
| 2026-05-06 01:44 | -6.81131 | 111.90958 | 22613 ft | 425 kts | 304° |
| 2026-05-06 01:45 | -6.79505 | 111.88469 | 22940 ft | 427 kts | 304° |
| 2026-05-06 01:45 | -6.77868 | 111.85967 | 23253 ft | 429 kts | 304° |
| 2026-05-06 01:45 | -6.76221 | 111.83452 | 23561 ft | 432 kts | 304° |
| 2026-05-06 01:45 | -6.74566 | 111.80925 | 23857 ft | 434 kts | 304° |
| 2026-05-06 01:46 | -6.72877 | 111.78349 | 24157 ft | 436 kts | 304° |
| 2026-05-06 01:46 | -6.71201 | 111.75795 | 24443 ft | 438 kts | 304° |
| 2026-05-06 01:46 | -6.69540 | 111.73264 | 24722 ft | 440 kts | 304° |
| 2026-05-06 01:46 | -6.67830 | 111.70656 | 24992 ft | 442 kts | 304° |
| 2026-05-06 01:47 | -6.66136 | 111.68074 | 25261 ft | 443 kts | 304° |
| 2026-05-06 01:47 | -6.64433 | 111.65476 | 25522 ft | 445 kts | 304° |
| 2026-05-06 01:47 | -6.62728 | 111.62871 | 25779 ft | 447 kts | 304° |
| 2026-05-06 01:47 | -6.61141 | 111.60178 | 26037 ft | 449 kts | 297° |
| 2026-05-06 01:48 | -6.59703 | 111.57385 | 26279 ft | 450 kts | 298° |
| 2026-05-06 01:48 | -6.58254 | 111.54587 | 26518 ft | 452 kts | 298° |
| 2026-05-06 01:48 | -6.56796 | 111.51781 | 26738 ft | 453 kts | 298° |
| 2026-05-06 01:48 | -6.55330 | 111.48969 | 26970 ft | 455 kts | 298° |
| 2026-05-06 01:49 | -6.53864 | 111.46149 | 27190 ft | 456 kts | 297° |
| 2026-05-06 01:49 | -6.52389 | 111.43314 | 27407 ft | 458 kts | 297° |
| 2026-05-06 01:49 | -6.50910 | 111.40476 | 27613 ft | 459 kts | 297° |
| 2026-05-06 01:49 | -6.49432 | 111.37631 | 27829 ft | 460 kts | 297° |
| 2026-05-06 01:50 | -6.47948 | 111.34776 | 28038 ft | 461 kts | 297° |
| 2026-05-06 01:50 | -6.46460 | 111.31914 | 28239 ft | 462 kts | 297° |
| 2026-05-06 01:50 | -6.44969 | 111.29045 | 28415 ft | 464 kts | 297° |
| 2026-05-06 01:50 | -6.43472 | 111.26165 | 28600 ft | 465 kts | 297° |
| 2026-05-06 01:51 | -6.41971 | 111.23279 | 28783 ft | 466 kts | 297° |
| 2026-05-06 01:51 | -6.40466 | 111.20386 | 28976 ft | 467 kts | 297° |
| 2026-05-06 01:51 | -6.38956 | 111.17486 | 29142 ft | 469 kts | 297° |
| 2026-05-06 01:51 | -6.37441 | 111.14583 | 29310 ft | 470 kts | 297° |
| 2026-05-06 01:52 | -6.35922 | 111.11672 | 29482 ft | 471 kts | 297° |
| 2026-05-06 01:52 | -6.34391 | 111.08759 | 29641 ft | 472 kts | 297° |
| 2026-05-06 01:52 | -6.32839 | 111.05853 | 29798 ft | 473 kts | 298° |
| 2026-05-06 01:52 | -6.31269 | 111.02943 | 29949 ft | 474 kts | 298° |
| 2026-05-06 01:53 | -6.29689 | 111.00025 | 30094 ft | 475 kts | 298° |
| 2026-05-06 01:53 | -6.28112 | 110.97108 | 30245 ft | 476 kts | 298° |
| 2026-05-06 01:53 | -6.26533 | 110.94177 | 30417 ft | 476 kts | 298° |
| 2026-05-06 01:53 | -6.24964 | 110.91253 | 30618 ft | 475 kts | 298° |
| 2026-05-06 01:54 | -6.23397 | 110.88330 | 30839 ft | 474 kts | 298° |
| 2026-05-06 01:54 | -6.21833 | 110.85412 | 31050 ft | 474 kts | 298° |
| 2026-05-06 01:54 | -6.20799 | 110.83487 | 31183 ft | 473 kts | 298° |
| 2026-05-06 01:54 | -6.18706 | 110.79598 | 31447 ft | 473 kts | 298° |
| 2026-05-06 01:55 | -6.17668 | 110.77671 | 31570 ft | 473 kts | 298° |
| 2026-05-06 01:55 | -6.16107 | 110.74772 | 31772 ft | 472 kts | 298° |
| 2026-05-06 01:55 | -6.14545 | 110.71874 | 31878 ft | 468 kts | 298° |
| 2026-05-06 01:55 | -6.13019 | 110.69035 | 31899 ft | 458 kts | 298° |
| 2026-05-06 01:56 | -6.09997 | 110.63405 | 31894 ft | 458 kts | 298° |
| 2026-05-06 01:56 | -6.06968 | 110.57782 | 31897 ft | 458 kts | 298° |
| 2026-05-06 01:57 | -6.03931 | 110.52152 | 31896 ft | 458 kts | 298° |
| 2026-05-06 01:57 | -6.00903 | 110.46523 | 31896 ft | 458 kts | 298° |
| 2026-05-06 01:58 | -5.97961 | 110.40849 | 31891 ft | 458 kts | 291° |
| 2026-05-06 01:58 | -5.96524 | 110.34644 | 31883 ft | 458 kts | 272° |
| 2026-05-06 01:59 | -5.96508 | 110.28250 | 31891 ft | 458 kts | 269° |
| 2026-05-06 01:59 | -5.96509 | 110.21860 | 31895 ft | 457 kts | 270° |
| 2026-05-06 02:00 | -5.96491 | 110.15469 | 31899 ft | 457 kts | 270° |
| 2026-05-06 02:00 | -5.96484 | 110.09082 | 31900 ft | 457 kts | 269° |
| 2026-05-06 02:01 | -5.96488 | 110.02701 | 31902 ft | 457 kts | 269° |
| 2026-05-06 02:01 | -5.96496 | 109.96314 | 31903 ft | 457 kts | 269° |
| 2026-05-06 02:02 | -5.96495 | 109.89930 | 31900 ft | 457 kts | 270° |
| 2026-05-06 02:02 | -5.96486 | 109.83546 | 31895 ft | 457 kts | 270° |
| 2026-05-06 02:03 | -5.96477 | 109.77161 | 31895 ft | 457 kts | 270° |
| 2026-05-06 02:03 | -5.96474 | 109.70778 | 31896 ft | 457 kts | 270° |
| 2026-05-06 02:04 | -5.96468 | 109.64391 | 31896 ft | 457 kts | 270° |
| 2026-05-06 02:04 | -5.96457 | 109.57996 | 31894 ft | 458 kts | 270° |
| 2026-05-06 02:05 | -5.96448 | 109.51596 | 31900 ft | 458 kts | 270° |
| 2026-05-06 02:05 | -5.96438 | 109.45197 | 31900 ft | 458 kts | 270° |
| 2026-05-06 02:06 | -5.96429 | 109.38799 | 31898 ft | 458 kts | 270° |
| 2026-05-06 02:06 | -5.96426 | 109.32392 | 31894 ft | 459 kts | 270° |
| 2026-05-06 02:07 | -5.96421 | 109.25974 | 31903 ft | 460 kts | 270° |
| 2026-05-06 02:07 | -5.96409 | 109.19550 | 31907 ft | 460 kts | 270° |
| 2026-05-06 02:08 | -5.96388 | 109.13130 | 31905 ft | 460 kts | 270° |
| 2026-05-06 02:08 | -5.96369 | 109.06708 | 31904 ft | 460 kts | 270° |
| 2026-05-06 02:09 | -5.96360 | 109.00286 | 31901 ft | 460 kts | 270° |
| 2026-05-06 02:09 | -5.96345 | 108.93860 | 31906 ft | 460 kts | 270° |
| 2026-05-06 02:10 | -5.96332 | 108.87438 | 31904 ft | 460 kts | 270° |
| 2026-05-06 02:10 | -5.96323 | 108.81020 | 31906 ft | 460 kts | 270° |
| 2026-05-06 02:11 | -5.96311 | 108.74586 | 31911 ft | 460 kts | 270° |
| 2026-05-06 02:11 | -5.96291 | 108.68164 | 31920 ft | 460 kts | 270° |
| 2026-05-06 02:12 | -5.96267 | 108.61739 | 31915 ft | 460 kts | 270° |
| 2026-05-06 02:12 | -5.96242 | 108.55310 | 31915 ft | 460 kts | 270° |
| 2026-05-06 02:13 | -5.96229 | 108.48892 | 31915 ft | 460 kts | 270° |
| 2026-05-06 02:13 | -5.96219 | 108.42471 | 31906 ft | 460 kts | 270° |
| 2026-05-06 02:14 | -5.96209 | 108.36046 | 31904 ft | 460 kts | 270° |
| 2026-05-06 02:14 | -5.96209 | 108.29627 | 31912 ft | 459 kts | 270° |
| 2026-05-06 02:15 | -5.96204 | 108.23213 | 31903 ft | 459 kts | 270° |
| 2026-05-06 02:15 | -5.96195 | 108.16792 | 31895 ft | 460 kts | 270° |
| 2026-05-06 02:16 | -5.96184 | 108.10379 | 31891 ft | 459 kts | 270° |
| 2026-05-06 02:16 | -5.96170 | 108.03959 | 31883 ft | 460 kts | 270° |
| 2026-05-06 02:17 | -5.96166 | 108.00758 | 31668 ft | 456 kts | 270° |
| 2026-05-06 02:17 | -5.96164 | 107.97568 | 30774 ft | 459 kts | 270° |
| 2026-05-06 02:17 | -5.96165 | 107.94366 | 30108 ft | 457 kts | 270° |
| 2026-05-06 02:17 | -5.96168 | 107.91194 | 29544 ft | 452 kts | 270° |
| 2026-05-06 02:18 | -5.96169 | 107.88053 | 28968 ft | 448 kts | 270° |
| 2026-05-06 02:18 | -5.96170 | 107.84940 | 28399 ft | 444 kts | 270° |
| 2026-05-06 02:18 | -5.96170 | 107.81855 | 27835 ft | 440 kts | 270° |
| 2026-05-06 02:18 | -5.96169 | 107.78797 | 27287 ft | 436 kts | 270° |
| 2026-05-06 02:19 | -5.96171 | 107.75769 | 26741 ft | 432 kts | 270° |
| 2026-05-06 02:19 | -5.96173 | 107.72770 | 26220 ft | 428 kts | 270° |
| 2026-05-06 02:19 | -5.96171 | 107.69794 | 25701 ft | 424 kts | 270° |
| 2026-05-06 02:19 | -5.96170 | 107.66848 | 25204 ft | 420 kts | 270° |
| 2026-05-06 02:20 | -5.96166 | 107.61028 | 24181 ft | 415 kts | 270° |
| 2026-05-06 02:20 | -5.96165 | 107.58143 | 23665 ft | 412 kts | 270° |
| 2026-05-06 02:20 | -5.96163 | 107.55277 | 23152 ft | 409 kts | 270° |
| 2026-05-06 02:21 | -5.96162 | 107.52431 | 22642 ft | 406 kts | 270° |
| 2026-05-06 02:21 | -5.96164 | 107.49603 | 22136 ft | 404 kts | 270° |
| 2026-05-06 02:21 | -5.96168 | 107.46791 | 21634 ft | 401 kts | 270° |
| 2026-05-06 02:21 | -5.96173 | 107.43996 | 21131 ft | 399 kts | 270° |
| 2026-05-06 02:22 | -5.96176 | 107.41219 | 20636 ft | 396 kts | 270° |
| 2026-05-06 02:22 | -5.96176 | 107.38423 | 20135 ft | 394 kts | 270° |
| 2026-05-06 02:22 | -5.96176 | 107.35725 | 19717 ft | 389 kts | 270° |
| 2026-05-06 02:22 | -5.96174 | 107.32980 | 19179 ft | 387 kts | 270° |
| 2026-05-06 02:23 | -5.96170 | 107.30297 | 18834 ft | 381 kts | 270° |
| 2026-05-06 02:23 | -5.96165 | 107.27688 | 18408 ft | 377 kts | 270° |
| 2026-05-06 02:23 | -5.96159 | 107.25027 | 17929 ft | 375 kts | 270° |
| 2026-05-06 02:23 | -5.96155 | 107.22453 | 17480 ft | 372 kts | 270° |
| 2026-05-06 02:24 | -5.96150 | 107.19862 | 17031 ft | 370 kts | 270° |
| 2026-05-06 02:24 | -5.96142 | 107.17255 | 16573 ft | 367 kts | 270° |
| 2026-05-06 02:24 | -5.96139 | 107.14698 | 16129 ft | 365 kts | 270° |
| 2026-05-06 02:24 | -5.96136 | 107.12159 | 15691 ft | 362 kts | 270° |
| 2026-05-06 02:25 | -5.96131 | 107.09635 | 15258 ft | 360 kts | 270° |
| 2026-05-06 02:25 | -5.96127 | 107.07130 | 14827 ft | 358 kts | 270° |
| 2026-05-06 02:25 | -5.96123 | 107.04641 | 14393 ft | 355 kts | 270° |
| 2026-05-06 02:25 | -5.96119 | 107.02196 | 13965 ft | 353 kts | 270° |
| 2026-05-06 02:26 | -5.96114 | 106.99703 | 13531 ft | 351 kts | 270° |
| 2026-05-06 02:26 | -5.96109 | 106.97261 | 13100 ft | 349 kts | 270° |
| 2026-05-06 02:26 | -5.96104 | 106.94834 | 12661 ft | 346 kts | 270° |
| 2026-05-06 02:26 | -5.96099 | 106.92425 | 12220 ft | 344 kts | 270° |
| 2026-05-06 02:27 | -5.96093 | 106.90030 | 11774 ft | 342 kts | 270° |
| 2026-05-06 02:27 | -5.96084 | 106.87651 | 11329 ft | 340 kts | 270° |
| 2026-05-06 02:27 | -5.96076 | 106.85396 | 10892 ft | 338 kts | 270° |
| 2026-05-06 02:27 | -5.96067 | 106.83068 | 10700 ft | 327 kts | 270° |
| 2026-05-06 02:28 | -5.96061 | 106.80826 | 10574 ft | 315 kts | 270° |
| 2026-05-06 02:28 | -5.96233 | 106.78676 | 10429 ft | 304 kts | 257° |
| 2026-05-06 02:28 | -5.96898 | 106.76685 | 10093 ft | 300 kts | 247° |
| 2026-05-06 02:28 | -5.97688 | 106.74754 | 9687 ft | 299 kts | 247° |
| 2026-05-06 02:29 | -5.98477 | 106.72827 | 9274 ft | 298 kts | 246° |
| 2026-05-06 02:29 | -5.99263 | 106.70905 | 8862 ft | 297 kts | 246° |
| 2026-05-06 02:29 | -6.00043 | 106.68987 | 8460 ft | 296 kts | 246° |
| 2026-05-06 02:29 | -6.00816 | 106.67080 | 8068 ft | 294 kts | 247° |
| 2026-05-06 02:30 | -6.01586 | 106.65185 | 7656 ft | 292 kts | 246° |
| 2026-05-06 02:30 | -6.02348 | 106.63301 | 7248 ft | 290 kts | 247° |
| 2026-05-06 02:30 | -6.03105 | 106.61421 | 6834 ft | 289 kts | 247° |
| 2026-05-06 02:30 | -6.03853 | 106.59574 | 6631 ft | 279 kts | 246° |
| 2026-05-06 02:31 | -6.04567 | 106.57808 | 6460 ft | 268 kts | 247° |
| 2026-05-06 02:31 | -6.05262 | 106.56088 | 6136 ft | 264 kts | 246° |
| 2026-05-06 02:31 | -6.05954 | 106.54384 | 5757 ft | 263 kts | 246° |
| 2026-05-06 02:31 | -6.06641 | 106.52687 | 5394 ft | 261 kts | 246° |
| 2026-05-06 02:32 | -6.07321 | 106.51000 | 5020 ft | 260 kts | 246° |
| 2026-05-06 02:32 | -6.07999 | 106.49326 | 4639 ft | 258 kts | 246° |
| 2026-05-06 02:32 | -6.08675 | 106.47661 | 4267 ft | 257 kts | 246° |
| 2026-05-06 02:32 | -6.09346 | 106.46002 | 3847 ft | 257 kts | 246° |
| 2026-05-06 02:33 | -6.09797 | 106.44886 | 3419 ft | 264 kts | 246° |
| 2026-05-06 02:33 | -6.10618 | 106.43240 | 3112 ft | 258 kts | 226° |
| 2026-05-06 02:34 | -6.15166 | 106.42793 | 3005 ft | 229 kts | 166° |
| 2026-05-06 02:34 | -6.16648 | 106.43304 | 3020 ft | 225 kts | 139° |
| 2026-05-06 02:34 | -6.17487 | 106.44556 | 3016 ft | 220 kts | 100° |
| 2026-05-06 02:34 | -6.17522 | 106.46090 | 3003 ft | 218 kts | 88° |
| 2026-05-06 02:35 | -6.17475 | 106.47628 | 3009 ft | 221 kts | 89° |
| 2026-05-06 02:35 | -6.17402 | 106.49164 | 3008 ft | 222 kts | 81° |
| 2026-05-06 02:35 | -6.16908 | 106.50637 | 3011 ft | 222 kts | 69° |
| 2026-05-06 02:35 | -6.16329 | 106.52074 | 3008 ft | 223 kts | 70° |
| 2026-05-06 02:36 | -6.15749 | 106.53517 | 3012 ft | 223 kts | 69° |
| 2026-05-06 02:36 | -6.15168 | 106.54957 | 3010 ft | 222 kts | 70° |
| 2026-05-06 02:36 | -6.14593 | 106.56408 | 3008 ft | 222 kts | 70° |
| 2026-05-06 02:36 | -6.14024 | 106.57853 | 3009 ft | 223 kts | 70° |
| 2026-05-06 02:37 | -6.13456 | 106.59295 | 3009 ft | 221 kts | 70° |
| 2026-05-06 02:37 | -6.12885 | 106.60742 | 3007 ft | 222 kts | 70° |
| 2026-05-06 02:37 | -6.12311 | 106.62181 | 3007 ft | 222 kts | 70° |
| 2026-05-06 02:37 | -6.11735 | 106.63622 | 3012 ft | 222 kts | 70° |
| 2026-05-06 02:38 | -6.11204 | 106.64921 | 3012 ft | 224 kts | 66° |
| 2026-05-06 02:38 | -6.10213 | 106.66105 | 3012 ft | 226 kts | 29° |
| 2026-05-06 02:38 | -6.08681 | 106.66550 | 3013 ft | 235 kts | 6° |
| 2026-05-06 02:38 | -6.07073 | 106.66373 | 3011 ft | 238 kts | 339° |
| 2026-05-06 02:39 | -6.05744 | 106.65372 | 3012 ft | 243 kts | 306° |
| 2026-05-06 02:39 | -6.05128 | 106.63811 | 3009 ft | 243 kts | 273° |
| 2026-05-06 02:39 | -6.05349 | 106.62141 | 3009 ft | 242 kts | 251° |
| 2026-05-06 02:39 | -6.05898 | 106.60542 | 3004 ft | 243 kts | 248° |
| 2026-05-06 02:40 | -6.06495 | 106.58959 | 3009 ft | 243 kts | 247° |
| 2026-05-06 02:40 | -6.07097 | 106.57377 | 3009 ft | 242 kts | 246° |
| 2026-05-06 02:40 | -6.07701 | 106.55799 | 3013 ft | 242 kts | 247° |
| 2026-05-06 02:40 | -6.08307 | 106.54221 | 3011 ft | 242 kts | 248° |
| 2026-05-06 02:41 | -6.08916 | 106.52635 | 3010 ft | 243 kts | 248° |
| 2026-05-06 02:41 | -6.09516 | 106.51051 | 3007 ft | 242 kts | 248° |
| 2026-05-06 02:41 | -6.10118 | 106.49465 | 3012 ft | 244 kts | 248° |
| 2026-05-06 02:41 | -6.10726 | 106.47879 | 3009 ft | 243 kts | 247° |
| 2026-05-06 02:42 | -6.11333 | 106.46298 | 3010 ft | 242 kts | 247° |
| 2026-05-06 02:42 | -6.11976 | 106.44739 | 2927 ft | 239 kts | 240° |
| 2026-05-06 02:42 | -6.13018 | 106.43561 | 2808 ft | 219 kts | 205° |
| 2026-05-06 02:42 | -6.14449 | 106.43193 | 2674 ft | 210 kts | 171° |
| 2026-05-06 02:43 | -6.15767 | 106.43714 | 2614 ft | 204 kts | 137° |
| 2026-05-06 02:43 | -6.16560 | 106.44874 | 2680 ft | 205 kts | 108° |
| 2026-05-06 02:43 | -6.16778 | 106.46262 | 2511 ft | 202 kts | 80° |
| 2026-05-06 02:43 | -6.16168 | 106.47519 | 2627 ft | 209 kts | 51° |
| 2026-05-06 02:44 | -6.15030 | 106.48495 | 2136 ft | 219 kts | 37° |
| 2026-05-06 02:44 | -6.14014 | 106.49541 | 2010 ft | 201 kts | 61° |
| 2026-05-06 02:44 | -6.13359 | 106.50779 | 2015 ft | 202 kts | 65° |
| 2026-05-06 02:44 | -6.12776 | 106.51999 | 2004 ft | 185 kts | 66° |
| 2026-05-06 02:45 | -6.12324 | 106.53197 | 2012 ft | 184 kts | 79° |
| 2026-05-06 02:45 | -6.12190 | 106.54474 | 2017 ft | 183 kts | 89° |
| 2026-05-06 02:45 | -6.12166 | 106.55724 | 2040 ft | 170 kts | 90° |
| 2026-05-06 02:45 | -6.12161 | 106.56842 | 2026 ft | 158 kts | 90° |
| 2026-05-06 02:46 | -6.12160 | 106.57936 | 2009 ft | 157 kts | 90° |
| 2026-05-06 02:46 | -6.12156 | 106.59034 | 1800 ft | 156 kts | 90° |
| 2026-05-06 02:46 | -6.12205 | 106.60114 | 1411 ft | 155 kts | 95° |
| 2026-05-06 02:46 | -6.12339 | 106.61154 | 1172 ft | 146 kts | 93° |
| 2026-05-06 02:47 | -6.12102 | 106.62138 | 974 ft | 147 kts | 61° |
| 2026-05-06 02:47 | -6.11449 | 106.62932 | 1068 ft | 149 kts | 51° |
| 2026-05-06 02:47 | -6.10794 | 106.63731 | 954 ft | 148 kts | 53° |
| 2026-05-06 02:47 | -6.10151 | 106.64534 | 933 ft | 147 kts | 64° |
| 2026-05-06 02:48 | -6.09865 | 106.65511 | 1021 ft | 146 kts | 70° |
| 2026-05-06 02:48 | -6.09314 | 106.66370 | 798 ft | 147 kts | 44° |
| 2026-05-06 02:48 | -6.08385 | 106.66830 | 706 ft | 149 kts | 26° |
| 2026-05-06 02:48 | -6.07448 | 106.67281 | 825 ft | 149 kts | 28° |
| 2026-05-06 02:49 | -6.06524 | 106.67754 | 1054 ft | 150 kts | 31° |
| 2026-05-06 02:49 | -6.05533 | 106.67830 | 1345 ft | 150 kts | 338° |
| 2026-05-06 02:49 | -6.04865 | 106.66996 | 1479 ft | 160 kts | 281° |
| 2026-05-06 02:49 | -6.05078 | 106.65944 | 1394 ft | 158 kts | 238° |